Time;durP1;ratioP1;P1;durP2;ratioP2;P2;SDS_P1;SDS_P2;PMS_P1;PMS_P2;Temp;Humidity;BMP_temperature;BMP_pressure;BME280_temperature;BME280_humidity;BME280_pressure;Samples;Min_cycle;Max_cycle;Signal;HPM_P1;HPM_P2
2022/12/15 00:40:38;;;;;;;;;;;;;;;-1.20;55.98;100612.03;5026214;28;124989;-66
2022/12/15 00:43:05;;;;;;;;;;;;;;;-1.18;56.17;100611.16;5028743;28;114424;-66
2022/12/15 00:48:17;;;;;;;;;;;;;;;-1.13;55.94;100621.56;5025517;28;124337;-67
2022/12/15 00:50:53;;;;;;;;;;;;;;;-1.11;56.05;100629.31;5029855;28;124591;-67
2022/12/15 01:21:00;;;;;;;;;;;;;;;-0.93;55.84;100636.25;5026248;28;124141;-67
2022/12/15 01:23:27;;;;;;;;;;;;;;;-0.93;55.96;100641.44;5028331;28;124668;-67
2022/12/15 01:25:54;;;;;;;;;;;;;;;-0.94;55.78;100640.59;5023379;28;115792;-67
2022/12/15 01:28:22;;;;;;;;;;;;;;;-0.94;56.12;100644.91;5029270;28;114623;-67
2022/12/15 01:30:49;;;;;;;;;;;;;;;-0.93;55.74;100641.44;5026900;28;124407;-66
2022/12/15 01:33:17;;;;;;;;;;;;;;;-0.95;55.75;100653.59;5026475;28;124547;-66
2022/12/15 01:35:45;;;;;;;;;;;;;;;-0.95;55.77;100648.38;5026277;28;115006;-67
2022/12/15 01:38:12;;;;;;;;;;;;;;;-0.96;55.87;100657.03;5028205;28;113721;-67
2022/12/15 01:40:45;;;;;;;;;;;;;;;-0.98;56.02;100655.31;5028740;28;124713;-67
2022/12/15 01:43:14;;;;;;;;;;;;;;;-0.99;56.01;100658.78;5024612;28;124844;-67
2022/12/15 01:45:47;;;;;;;;;;;;;;;-0.99;55.82;100652.72;5029160;28;114395;-67
2022/12/15 01:48:18;;;;;;;;;;;;;;;-1.01;55.76;100650.13;5028763;28;114377;-67
2022/12/15 01:50:50;;;;;;;;;;;;;;;-1.03;55.80;100651.84;5024776;28;124066;-67
2022/12/15 01:53:17;;;;;;;;;;;;;;;-1.05;55.82;100653.59;5023967;28;124931;-67
2022/12/15 01:55:45;;;;;;;;;;;;;;;-1.06;55.78;100644.03;5029228;28;115252;-67
2022/12/15 01:58:16;;;;;;;;;;;;;;;-1.08;55.93;100643.19;5031556;28;114125;-67
2022/12/15 02:00:43;;;;;;;;;;;;;;;-1.08;55.95;100643.19;5031727;28;124226;-67
2022/12/15 02:03:11;;;;;;;;;;;;;;;-1.07;56.08;100659.66;5026874;28;125074;-67
2022/12/15 02:05:38;;;;;;;;;;;;;;;-1.09;55.96;100651.88;5030088;28;114548;-67
2022/12/15 02:08:05;;;;;;;;;;;;;;;-1.08;55.90;100658.78;5029915;28;113838;-67
2022/12/15 02:10:40;;;;;;;;;;;;;;;-1.09;56.19;100672.66;5030784;28;125220;-67
2022/12/15 02:13:16;;;;;;;;;;;;;;;-1.07;56.06;100670.06;5029562;28;124198;-67
2022/12/15 02:15:48;;;;;;;;;;;;;;;-1.05;56.20;100684.78;5025580;28;115498;-67
2022/12/15 02:18:25;;;;;;;;;;;;;;;-1.05;56.19;100689.97;5025984;28;114698;-67
2022/12/15 02:20:58;;;;;;;;;;;;;;;-1.04;56.09;100698.63;5028202;28;124751;-67
2022/12/15 02:23:31;;;;;;;;;;;;;;;-1.03;55.90;100701.22;5031473;28;124779;-67
2022/12/15 02:26:10;;;;;;;;;;;;;;;-1.03;55.88;100698.63;5040959;27;114006;-67
2022/12/15 02:28:37;;;;;;;;;;;;;;;-1.03;55.75;100703.84;5029031;28;113622;-67
2022/12/15 02:34:00;;;;;;;;;;;;;;;-1.05;55.92;100705.56;5026358;28;123119;-66
2022/12/15 02:36:47;;;;;;;;;;;;;;;-1.05;55.92;100700.38;5029087;27;115071;-66
2022/12/15 02:39:17;;;;;;;;;;;;;;;-1.05;55.81;100695.19;5031129;28;115313;-67
2022/12/15 02:41:45;;;;;;;;;;;;;;;-1.06;56.12;100688.22;5031613;28;124365;-66
2022/12/15 02:44:15;;;;;;;;;;;;;;;-1.06;55.96;100688.22;5030114;27;122860;-67
2022/12/15 02:47:01;;;;;;;;;;;;;;;-1.08;56.10;100684.75;5034872;27;114343;-67
2022/12/15 02:49:28;;;;;;;;;;;;;;;-1.08;55.83;100695.16;5030859;28;114434;-67
2022/12/15 02:52:00;;;;;;;;;;;;;;;-1.10;55.66;100696.91;5027456;28;124050;-67
2022/12/15 02:54:36;;;;;;;;;;;;;;;-1.12;56.04;100698.63;5027726;27;124853;-66
2022/12/15 02:57:24;;;;;;;;;;;;;;;-1.13;55.68;100702.13;5027462;28;114078;-67
2022/12/15 03:00:00;;;;;;;;;;;;;;;-1.15;55.94;100703.81;5028747;28;113457;-67
2022/12/15 03:02:29;;;;;;;;;;;;;;;-1.18;56.21;100703.84;5028564;27;125331;-67
2022/12/15 03:04:57;;;;;;;;;;;;;;;-1.19;55.77;100702.97;5030764;28;123902;-66
2022/12/15 03:07:27;;;;;;;;;;;;;;;-1.20;55.84;100689.97;5029258;27;114543;-67
2022/12/15 03:09:55;;;;;;;;;;;;;;;-1.21;56.03;100688.22;5031212;27;118158;-67
2022/12/15 03:12:22;;;;;;;;;;;;;;;-1.23;55.82;100684.75;5027459;28;124135;-67
2022/12/15 03:14:49;;;;;;;;;;;;;;;-1.24;56.03;100698.63;5031139;28;123747;-67
2022/12/15 03:17:16;;;;;;;;;;;;;;;-1.27;55.61;100704.69;5029037;28;115436;-67
2022/12/15 03:19:42;;;;;;;;;;;;;;;-1.27;55.93;100706.41;5030207;28;113546;-67
2022/12/15 03:22:09;;;;;;;;;;;;;;;-1.28;56.07;100709.88;5030851;28;124982;-67
2022/12/15 03:24:36;;;;;;;;;;;;;;;-1.27;55.86;100711.63;5031432;28;124203;-66
2022/12/15 03:27:03;;;;;;;;;;;;;;;-1.27;56.05;100714.22;5029421;27;114043;-67
2022/12/15 03:29:30;;;;;;;;;;;;;;;-1.27;56.21;100719.41;5029537;28;113749;-67
2022/12/15 03:31:57;;;;;;;;;;;;;;;-1.26;56.20;100710.72;5028682;28;124121;-67
2022/12/15 03:34:24;;;;;;;;;;;;;;;-1.27;56.15;100719.41;5030504;28;124279;-67
2022/12/15 03:36:51;;;;;;;;;;;;;;;-1.27;56.23;100719.41;5028012;27;114088;-67
2022/12/15 03:39:18;;;;;;;;;;;;;;;-1.25;55.93;100712.47;5030086;28;114614;-67
2022/12/15 03:41:45;;;;;;;;;;;;;;;-1.25;56.17;100712.47;5028180;28;124443;-67
2022/12/15 03:44:12;;;;;;;;;;;;;;;-1.24;55.80;100714.22;5032689;27;123438;-67
2022/12/15 03:46:39;;;;;;;;;;;;;;;-1.24;55.99;100714.22;5029225;28;114537;-67
2022/12/15 03:49:06;;;;;;;;;;;;;;;-1.23;56.25;100721.13;5029481;27;113069;-67
2022/12/15 03:51:32;;;;;;;;;;;;;;;-1.22;55.89;100722.88;5030347;28;124070;-67
2022/12/15 03:53:59;;;;;;;;;;;;;;;-1.22;55.98;100728.94;5027669;28;124571;-67
2022/12/15 03:56:26;;;;;;;;;;;;;;;-1.22;56.14;100738.47;5027124;27;115279;-67
2022/12/15 03:58:53;;;;;;;;;;;;;;;-1.21;56.16;100740.19;5029484;27;115591;-67
2022/12/15 04:01:20;;;;;;;;;;;;;;;-1.21;55.91;100740.19;5028506;28;123634;-67
2022/12/15 04:03:47;;;;;;;;;;;;;;;-1.23;55.75;100737.59;5026944;28;124081;-67
2022/12/15 04:06:14;;;;;;;;;;;;;;;-1.23;55.90;100737.59;5030266;28;114360;-67
2022/12/15 04:08:41;;;;;;;;;;;;;;;-1.23;55.67;100736.72;5029981;28;113630;-67
2022/12/15 04:11:08;;;;;;;;;;;;;;;-1.24;55.84;100740.22;5029489;28;124007;-67
2022/12/15 04:13:35;;;;;;;;;;;;;;;-1.26;55.84;100732.41;5030641;28;124647;-67
2022/12/15 04:16:01;;;;;;;;;;;;;;;-1.28;55.87;100728.06;5026941;28;114899;-67
2022/12/15 04:18:28;;;;;;;;;;;;;;;-1.28;56.03;100725.47;5028421;27;114406;-67
2022/12/15 04:20:55;;;;;;;;;;;;;;;-1.30;55.77;100719.38;5028102;28;123562;-67
2022/12/15 04:23:22;;;;;;;;;;;;;;;-1.31;56.01;100717.69;5030441;28;124707;-67
2022/12/15 05:32:23;;;;;;;;;;;;;;;-1.63;56.12;100753.09;5025860;28;114962;-67
2022/12/15 05:34:50;;;;;;;;;;;;;;;-1.63;55.91;100752.22;5029298;28;113664;-67
2022/12/15 05:37:17;;;;;;;;;;;;;;;-1.64;55.94;100760.84;5038647;27;123260;-64
2022/12/15 05:39:44;;;;;;;;;;;;;;;-1.64;56.30;100766.06;5023585;28;125480;-65
2022/12/15 05:42:11;;;;;;;;;;;;;;;-1.64;55.94;100763.47;5027531;28;115425;-64
2022/12/15 05:44:38;;;;;;;;;;;;;;;-1.67;56.17;100771.25;5026550;28;114836;-64
2022/12/15 05:47:05;;;;;;;;;;;;;;;-1.68;55.75;100774.69;5028740;28;124108;-65
2022/12/15 05:49:32;;;;;;;;;;;;;;;-1.68;55.90;100769.50;5022929;28;124398;-64
2022/12/15 05:51:59;;;;;;;;;;;;;;;-1.68;55.86;100777.28;5014443;28;114413;-65
2022/12/15 05:54:26;;;;;;;;;;;;;;;-1.69;55.77;100778.19;5026710;28;114541;-64
2022/12/15 05:56:52;;;;;;;;;;;;;;;-1.70;55.87;100776.44;5027651;28;124513;-64
2022/12/15 05:59:19;;;;;;;;;;;;;;;-1.71;55.55;100779.88;5028398;28;123915;-65
2022/12/15 06:01:46;;;;;;;;;;;;;;;-1.74;55.76;100779.88;5024698;28;115310;-64
2022/12/15 06:04:13;;;;;;;;;;;;;;;-1.76;55.74;100783.31;5023314;28;113408;-65
2022/12/15 06:06:41;;;;;;;;;;;;;;;-1.77;55.91;100778.16;5027465;28;124688;-64
2022/12/15 06:09:08;;;;;;;;;;;;;;;-1.79;55.87;100783.31;5027896;27;124637;-65
2022/12/15 06:11:36;;;;;;;;;;;;;;;-1.80;56.05;100794.56;5027755;28;115330;-65
2022/12/15 06:14:03;;;;;;;;;;;;;;;-1.81;55.71;100790.25;5027224;28;113747;-64
2022/12/15 06:16:30;;;;;;;;;;;;;;;-1.82;55.78;100804.06;5027333;28;124279;-64
2022/12/15 06:18:58;;;;;;;;;;;;;;;-1.83;55.69;100797.16;5026962;27;123487;-64
2022/12/15 06:21:29;;;;;;;;;;;;;;;-1.84;55.80;100810.97;5026579;28;114342;-65
2022/12/15 06:23:56;;;;;;;;;;;;;;;-1.84;56.11;100810.97;5026847;28;114323;-65
2022/12/15 06:26:27;;;;;;;;;;;;;;;-1.85;56.21;100814.41;5026897;28;124809;-65
2022/12/15 06:28:55;;;;;;;;;;;;;;;-1.86;55.81;100812.69;5025657;28;123507;-65
2022/12/15 06:31:24;;;;;;;;;;;;;;;-1.86;56.10;100817.03;5026207;28;116286;-65
2022/12/15 06:33:52;;;;;;;;;;;;;;;-1.89;55.72;100807.47;5028323;28;114887;-65
2022/12/15 06:36:27;;;;;;;;;;;;;;;-1.90;56.25;100800.56;5026260;28;124887;-65
2022/12/15 06:38:57;;;;;;;;;;;;;;;-1.89;55.82;100791.91;5026486;28;125026;-65
2022/12/15 06:41:24;;;;;;;;;;;;;;;-1.89;55.99;100802.28;5027664;27;114059;-65
2022/12/15 06:43:51;;;;;;;;;;;;;;;-1.89;56.06;100797.09;5031206;28;112945;-65
2022/12/15 06:46:19;;;;;;;;;;;;;;;-1.90;55.77;100800.56;5027614;28;123116;-65
2022/12/15 06:48:46;;;;;;;;;;;;;;;-1.93;55.79;100800.53;5031476;28;124115;-65
2022/12/15 06:51:14;;;;;;;;;;;;;;;-1.93;55.71;100804.88;5030439;27;113730;-65
2022/12/15 06:53:52;;;;;;;;;;;;;;;-1.95;55.87;100802.28;5031281;27;114240;-65
2022/12/15 06:56:22;;;;;;;;;;;;;;;-1.94;55.90;100809.22;5029377;27;123416;-65
2022/12/15 06:58:57;;;;;;;;;;;;;;;-1.93;55.87;100810.06;5030294;28;124384;-64
2022/12/15 07:01:24;;;;;;;;;;;;;;;-1.93;56.18;100805.72;5030399;28;115334;-65
2022/12/15 07:03:52;;;;;;;;;;;;;;;-1.93;55.85;100816.13;5026705;27;113830;-64
2022/12/15 07:06:19;;;;;;;;;;;;;;;-1.93;55.99;100810.06;5030863;28;125120;-65
2022/12/15 07:08:55;;;;;;;;;;;;;;;-1.93;55.79;100816.13;5027733;28;124343;-65
2022/12/15 07:11:22;;;;;;;;;;;;;;;-1.94;56.17;100827.38;5028450;28;114452;-64
2022/12/15 07:13:52;;;;;;;;;;;;;;;-1.93;56.11;100810.06;5029439;28;114039;-65
2022/12/15 07:16:20;;;;;;;;;;;;;;;-1.95;56.12;100815.25;5026239;27;123810;-65
2022/12/15 07:18:48;;;;;;;;;;;;;;;-1.96;55.93;100821.28;5028125;28;123970;-65
2022/12/15 07:21:15;;;;;;;;;;;;;;;-1.98;56.05;100817.81;5029855;28;115342;-65
2022/12/15 07:23:42;;;;;;;;;;;;;;;-1.99;55.69;100821.28;5026296;28;115186;-65
2022/12/15 07:26:21;;;;;;;;;;;;;;;-2.01;56.00;100833.38;5025571;28;124154;-64
2022/12/15 07:28:48;;;;;;;;;;;;;;;-2.02;56.14;100831.63;5027235;28;123149;-65
2022/12/15 07:31:15;;;;;;;;;;;;;;;-2.03;55.82;100829.91;5029185;28;114555;-65
2022/12/15 07:33:42;;;;;;;;;;;;;;;-2.04;55.83;100833.34;5029094;28;113872;-65
2022/12/15 07:36:09;;;;;;;;;;;;;;;-2.05;56.08;100836.81;5026096;28;124337;-65
2022/12/15 07:38:36;;;;;;;;;;;;;;;-2.05;56.06;100842.00;5024967;27;123023;-64
2022/12/15 07:41:04;;;;;;;;;;;;;;;-2.07;55.81;100838.50;5027300;28;114633;-65
2022/12/15 07:43:31;;;;;;;;;;;;;;;-2.07;56.15;100833.31;5028000;28;113856;-65
2022/12/15 07:46:00;;;;;;;;;;;;;;;-2.09;55.92;100829.84;5028022;28;124904;-65
2022/12/15 07:48:28;;;;;;;;;;;;;;;-2.10;56.15;100833.31;5028264;28;125034;-65
2022/12/15 07:50:58;;;;;;;;;;;;;;;-2.09;55.85;100835.03;5024184;28;114506;-64
2022/12/15 07:53:34;;;;;;;;;;;;;;;-2.10;55.99;100844.56;5026102;27;112641;-65
2022/12/15 07:56:03;;;;;;;;;;;;;;;-2.09;55.89;100850.59;5025449;28;124308;-65
2022/12/15 07:58:35;;;;;;;;;;;;;;;-2.07;56.42;100846.28;5022845;28;124842;-65
2022/12/15 08:01:06;;;;;;;;;;;;;;;-2.07;56.11;100848.88;5016268;28;114306;-65
2022/12/15 08:03:34;;;;;;;;;;;;;;;-2.09;55.81;100840.22;5027865;27;113264;-65
2022/12/15 08:06:04;;;;;;;;;;;;;;;-2.10;55.69;100848.88;5021146;28;125297;-65
2022/12/15 08:08:31;;;;;;;;;;;;;;;-2.10;56.14;100854.06;5029141;28;124207;-65
2022/12/15 08:11:02;;;;;;;;;;;;;;;-2.09;55.80;100860.97;5029817;28;115059;-65
2022/12/15 08:13:29;;;;;;;;;;;;;;;-2.07;56.10;100859.25;5029867;27;114633;-65
2022/12/15 08:16:16;;;;;;;;;;;;;;;-2.05;56.29;100867.97;5020611;28;124278;-65
2022/12/15 08:18:43;;;;;;;;;;;;;;;-2.04;56.02;100865.34;5029108;28;124054;-65
2022/12/15 08:21:10;;;;;;;;;;;;;;;-2.04;56.13;100869.69;5027489;28;114256;-65
2022/12/15 08:23:39;;;;;;;;;;;;;;;-2.03;55.77;100866.25;5028058;28;113597;-66
2022/12/15 08:26:06;;;;;;;;;;;;;;;-2.02;56.04;100873.16;5026057;27;126781;-66
2022/12/15 08:28:34;;;;;;;;;;;;;;;-2.02;55.76;100873.16;5031752;28;123684;-66
2022/12/15 08:31:05;;;;;;;;;;;;;;;-2.01;55.93;100874.91;5020257;28;113692;-65
2022/12/15 08:33:32;;;;;;;;;;;;;;;-1.99;55.97;100878.38;5032300;28;114288;-66
2022/12/15 08:36:01;;;;;;;;;;;;;;;-1.97;56.45;100876.66;5028987;27;123180;-66
2022/12/15 08:38:29;;;;;;;;;;;;;;;-1.95;55.88;100869.75;5023591;27;124263;-65
2022/12/15 08:40:56;;;;;;;;;;;;;;;-1.92;56.15;100869.78;5029105;28;114560;-65
2022/12/15 08:43:23;;;;;;;;;;;;;;;-1.90;56.04;100870.66;5021281;28;113655;-66
2022/12/15 08:45:50;;;;;;;;;;;;;;;-1.85;56.13;100876.72;5029963;27;123772;-65
2022/12/15 08:48:17;;;;;;;;;;;;;;;-1.83;56.33;100880.22;5019010;28;124545;-66
2022/12/15 08:50:44;;;;;;;;;;;;;;;-1.79;56.33;100881.97;5022926;28;114056;-66
2022/12/15 08:53:13;;;;;;;;;;;;;;;-1.74;56.02;100881.13;5032225;27;96686;-66
2022/12/15 08:56:04;;;;;;;;;;;;;;;-1.70;56.43;100890.66;5027972;27;124505;-66
2022/12/15 08:58:32;;;;;;;;;;;;;;;-1.66;56.36;100882.88;5021117;28;124161;-66
2022/12/15 09:01:00;;;;;;;;;;;;;;;-1.62;56.24;100883.78;5029492;28;115160;-66
2022/12/15 09:03:27;;;;;;;;;;;;;;;-1.58;56.23;100876.03;5029359;28;115148;-66
2022/12/15 09:05:56;;;;;;;;;;;;;;;-1.53;56.57;100882.97;5016615;28;124443;-65
2022/12/15 09:08:23;;;;;;;;;;;;;;;-1.49;56.27;100888.16;5014593;28;123974;-66
2022/12/15 09:10:50;;;;;;;;;;;;;;;-1.44;56.31;100893.41;5029097;28;114862;-66
2022/12/15 09:13:18;;;;;;;;;;;;;;;-1.39;56.22;100897.75;5027957;28;114521;-65
2022/12/15 09:15:45;;;;;;;;;;;;;;;-1.32;56.30;100895.19;5028219;28;123931;-66
2022/12/15 09:18:32;;;;;;;;;;;;;;;-1.26;56.41;100892.59;5024565;28;124929;-66
2022/12/15 09:21:01;;;;;;;;;;;;;;;-1.20;56.48;100895.25;5020065;28;113366;-66
2022/12/15 09:23:28;;;;;;;;;;;;;;;-1.14;56.20;100908.25;5030272;28;114089;-66
2022/12/15 09:25:59;;;;;;;;;;;;;;;-1.07;56.53;100909.16;5027962;28;125042;-66
2022/12/15 09:28:27;;;;;;;;;;;;;;;-1.00;56.45;100910.91;5024642;28;124196;-66
2022/12/15 09:31:00;;;;;;;;;;;;;;;-0.92;56.74;100913.53;5029157;28;114187;-66
2022/12/15 09:33:27;;;;;;;;;;;;;;;-0.84;56.39;100911.84;5028823;28;114218;-65
2022/12/15 09:35:55;;;;;;;;;;;;;;;-0.77;56.66;100903.19;5030946;28;124992;-66
2022/12/15 09:38:21;;;;;;;;;;;;;;;-0.70;56.78;100909.25;5023307;28;124650;-65
2022/12/15 09:40:48;;;;;;;;;;;;;;;-0.63;56.67;100917.06;5039031;28;115381;-66
2022/12/15 09:43:20;;;;;;;;;;;;;;;-0.54;56.55;100920.56;5041854;28;114648;-66
2022/12/15 09:46:05;;;;;;;;;;;;;;;-0.45;56.63;100925.78;5033128;28;125176;-66
2022/12/15 09:48:39;;;;;;;;;;;;;;;-0.36;56.71;100930.97;5028721;28;124278;-66
2022/12/15 09:51:09;;;;;;;;;;;;;;;-0.29;56.90;100937.94;5018437;28;115245;-66
2022/12/15 09:53:36;;;;;;;;;;;;;;;-0.20;56.72;100943.16;5023983;27;114707;-66
2022/12/15 09:56:27;;;;;;;;;;;;;;;-0.10;56.55;100937.94;5007622;28;124332;-67
2022/12/15 09:59:13;;;;;;;;;;;;;;;-0.01;56.60;100937.97;5008225;28;125284;-66
2022/12/15 10:01:40;;;;;;;;;;;;;;;0.09;56.78;100938.81;5022719;28;113497;-66
2022/12/15 10:04:10;;;;;;;;;;;;;;;0.16;56.78;100941.41;5028037;28;113708;-66
2022/12/15 10:07:00;;;;;;;;;;;;;;;0.26;56.83;100941.41;5011562;27;123953;-66
2022/12/15 10:09:28;;;;;;;;;;;;;;;0.35;56.70;100936.19;5014728;28;124129;-66
2022/12/15 10:12:01;;;;;;;;;;;;;;;0.44;56.92;100940.53;5028905;28;114318;-67
2022/12/15 10:14:28;;;;;;;;;;;;;;;0.52;56.73;100944.84;5029384;28;113883;-66
2022/12/15 10:17:02;;;;;;;;;;;;;;;0.62;56.84;100944.81;5029967;28;124339;-67
2022/12/15 10:19:35;;;;;;;;;;;;;;;0.71;56.73;100934.38;5031459;27;123363;-66
2022/12/15 10:22:02;;;;;;;;;;;;;;;0.81;56.81;100930.88;5032413;27;114505;-66
2022/12/15 10:24:30;;;;;;;;;;;;;;;0.91;56.82;100936.91;5011180;28;113904;-66
2022/12/15 10:27:37;;;;;;;;;;;;;;;1.01;56.91;100927.31;5024700;28;124238;-66
2022/12/15 10:30:07;;;;;;;;;;;;;;;1.11;56.68;100923.78;5027322;28;124774;-66
2022/12/15 10:32:54;;;;;;;;;;;;;;;1.18;56.67;100928.09;5024486;27;114451;-66
2022/12/15 10:35:24;;;;;;;;;;;;;;;1.28;57.01;100932.41;5012341;27;113835;-66
2022/12/15 10:37:51;;;;;;;;;;;;;;;1.39;56.75;100939.28;5029377;28;123323;-66
2022/12/15 10:40:21;;;;;;;;;;;;;;;1.46;56.94;100941.00;5032017;27;123000;-67
2022/12/15 10:42:49;;;;;;;;;;;;;;;1.55;56.99;100935.72;5025443;28;115413;-67
2022/12/15 10:45:37;;;;;;;;;;;;;;;1.62;56.83;100937.41;5023820;28;114006;-66
2022/12/15 10:48:05;;;;;;;;;;;;;;;1.72;56.98;100939.06;5017514;27;123920;-66
2022/12/15 10:50:32;;;;;;;;;;;;;;;1.81;56.76;100947.69;5028378;28;123046;-67
2022/12/15 10:53:07;;;;;;;;;;;;;;;1.88;56.77;100944.16;5038824;27;113340;-68
2022/12/15 10:55:40;;;;;;;;;;;;;;;1.95;56.69;100940.63;5018995;28;113432;-69
2022/12/15 10:58:32;;;;;;;;;;;;;;;2.01;56.80;100940.59;5027489;27;124895;-69
2022/12/15 11:01:07;;;;;;;;;;;;;;;2.06;56.75;100938.81;5038265;28;122648;-69
2022/12/15 11:03:39;;;;;;;;;;;;;;;2.10;56.62;100939.66;5033664;27;113672;-69
2022/12/15 11:06:16;;;;;;;;;;;;;;;2.15;56.67;100940.50;5034472;27;114242;-68
2022/12/15 11:08:43;;;;;;;;;;;;;;;2.20;56.71;100940.44;5028634;28;124847;-68
2022/12/15 11:14:14;;;;;;;;;;;;;;;2.34;56.90;100938.56;5024545;27;114315;-68
2022/12/15 11:16:47;;;;;;;;;;;;;;;2.42;56.95;100936.72;5030437;27;114246;-68
2022/12/15 11:19:20;;;;;;;;;;;;;;;2.51;56.95;100934.03;5027204;28;124936;-66
2022/12/15 11:21:50;;;;;;;;;;;;;;;2.60;56.81;100924.34;5020543;28;124227;-67
2022/12/15 11:24:24;;;;;;;;;;;;;;;2.69;57.05;100934.72;5044177;27;113577;-68
2022/12/15 11:27:03;;;;;;;;;;;;;;;2.77;57.03;100927.66;5027897;27;114439;-68
2022/12/15 11:29:33;;;;;;;;;;;;;;;2.85;56.92;100924.94;5030227;28;124432;-68
2022/12/15 11:32:00;;;;;;;;;;;;;;;2.90;56.86;100929.25;5027469;28;125533;-68
2022/12/15 11:34:51;;;;;;;;;;;;;;;2.98;56.78;100930.91;5026668;28;115405;-68
2022/12/15 11:37:37;;;;;;;;;;;;;;;3.06;56.87;100931.66;5027221;28;115336;-68
2022/12/15 11:40:04;;;;;;;;;;;;;;;3.14;56.84;100926.34;5028682;28;124274;-69
2022/12/15 11:42:31;;;;;;;;;;;;;;;3.22;57.04;100932.31;5025042;28;123820;-68
2022/12/15 11:44:58;;;;;;;;;;;;;;;3.30;56.84;100933.97;5011032;28;114463;-68
2022/12/15 11:47:34;;;;;;;;;;;;;;;3.40;56.82;100939.06;5025176;28;113410;-68
2022/12/15 11:50:11;;;;;;;;;;;;;;;3.51;56.81;100931.94;5022296;28;124283;-66
2022/12/15 11:52:43;;;;;;;;;;;;;;;3.60;56.86;100925.66;5024752;28;124141;-66
2022/12/15 11:55:14;;;;;;;;;;;;;;;3.67;56.73;100917.72;5027855;28;115412;-66
2022/12/15 11:57:54;;;;;;;;;;;;;;;3.75;56.77;100914.09;5030215;28;115481;-66
2022/12/15 12:00:22;;;;;;;;;;;;;;;3.84;56.75;100913.94;5041611;27;124047;-66
2022/12/15 12:02:54;;;;;;;;;;;;;;;3.88;56.57;100908.66;5028715;28;123697;-66
2022/12/15 12:05:27;;;;;;;;;;;;;;;3.95;56.58;100912.03;5025799;28;114606;-66
2022/12/15 12:08:01;;;;;;;;;;;;;;;4.00;56.81;100915.44;5030274;28;114265;-66
2022/12/15 12:10:43;;;;;;;;;;;;;;;4.06;56.97;100910.09;5021576;28;125960;-66
2022/12/15 12:13:14;;;;;;;;;;;;;;;4.13;56.89;100904.75;5029303;27;123623;-66
2022/12/15 12:15:50;;;;;;;;;;;;;;;4.19;56.59;100909.88;5028442;28;115950;-66
2022/12/15 12:18:20;;;;;;;;;;;;;;;4.23;56.53;100911.56;5043073;27;114802;-67
2022/12/15 12:20:50;;;;;;;;;;;;;;;4.29;56.56;100906.19;5028754;28;122807;-66
2022/12/15 12:23:30;;;;;;;;;;;;;;;4.34;56.79;100899.13;5029881;28;126697;-67
2022/12/15 12:26:04;;;;;;;;;;;;;;;4.42;56.86;100902.47;5026885;27;115730;-67
2022/12/15 12:28:51;;;;;;;;;;;;;;;4.46;56.50;100893.66;5026522;28;114867;-67
2022/12/15 12:31:31;;;;;;;;;;;;;;;4.53;56.79;100893.53;5026728;27;124065;-67
2022/12/15 12:34:01;;;;;;;;;;;;;;;4.58;56.61;100886.44;5027582;28;124156;-67
2022/12/15 12:36:28;;;;;;;;;;;;;;;4.61;56.52;100881.13;5027407;27;114282;-68
2022/12/15 12:38:56;;;;;;;;;;;;;;;4.67;56.48;100881.00;5026098;28;113882;-67
2022/12/15 12:41:38;;;;;;;;;;;;;;;4.73;56.76;100883.53;5029921;28;123917;-67
2022/12/15 12:44:09;;;;;;;;;;;;;;;4.80;56.46;100882.50;5027604;28;124519;-65
2022/12/15 12:46:43;;;;;;;;;;;;;;;4.86;56.83;100887.63;5028257;28;114481;-68
2022/12/15 12:49:26;;;;;;;;;;;;;;;4.93;56.68;100882.22;5028123;28;114380;-66
2022/12/15 12:51:54;;;;;;;;;;;;;;;4.96;56.66;100879.56;5025807;28;124239;-66
2022/12/15 12:54:29;;;;;;;;;;;;;;;5.00;56.41;100881.22;5027593;28;124662;-66
2022/12/15 12:56:56;;;;;;;;;;;;;;;5.03;56.62;100883.78;5023646;28;115183;-66
2022/12/15 12:59:27;;;;;;;;;;;;;;;5.06;56.48;100879.28;5027874;28;113573;-65
2022/12/15 13:01:55;;;;;;;;;;;;;;;5.10;56.27;100868.75;5024925;28;124667;-66
2022/12/15 13:04:28;;;;;;;;;;;;;;;5.15;56.29;100866.88;5026399;28;124858;-65
2022/12/15 13:06:57;;;;;;;;;;;;;;;5.19;56.44;100868.53;5027744;28;114634;-66
2022/12/15 13:09:40;;;;;;;;;;;;;;;5.24;56.62;100864.91;5029844;28;113668;-66
2022/12/15 13:12:36;;;;;;;;;;;;;;;5.29;56.46;100856.06;5016885;28;124990;-66
2022/12/15 13:15:26;;;;;;;;;;;;;;;5.34;56.38;100856.84;5019805;28;123963;-66
2022/12/15 13:17:54;;;;;;;;;;;;;;;5.37;56.15;100846.22;5026773;28;115529;-66
2022/12/15 13:20:22;;;;;;;;;;;;;;;5.39;56.30;100849.72;5027683;28;114942;-66
2022/12/15 13:22:49;;;;;;;;;;;;;;;5.42;56.17;100839.13;5024057;28;124943;-66
2022/12/15 13:25:25;;;;;;;;;;;;;;;5.46;56.14;100836.41;5025057;28;123984;-66
2022/12/15 13:27:56;;;;;;;;;;;;;;;5.50;56.03;100828.44;5024407;28;114909;-66
2022/12/15 13:30:23;;;;;;;;;;;;;;;5.51;56.36;100828.38;5011704;28;113182;-66
2022/12/15 13:32:51;;;;;;;;;;;;;;;5.53;56.31;100826.59;5014564;28;124897;-66
2022/12/15 13:35:23;;;;;;;;;;;;;;;5.58;56.08;100824.72;5023766;28;125016;-66
2022/12/15 13:37:54;;;;;;;;;;;;;;;5.61;56.02;100832.53;5026115;28;114612;-66
2022/12/15 13:40:21;;;;;;;;;;;;;;;5.65;56.26;100831.56;5021717;28;113880;-66
2022/12/15 13:43:03;;;;;;;;;;;;;;;5.70;56.17;100833.19;5026704;28;123956;-66
2022/12/15 13:45:35;;;;;;;;;;;;;;;5.73;56.21;100833.13;5027080;28;123985;-66
2022/12/15 13:48:15;;;;;;;;;;;;;;;5.77;56.16;100846.16;5022857;28;114548;-67
2022/12/15 13:50:55;;;;;;;;;;;;;;;5.79;56.38;100838.22;5019088;28;114830;-67
2022/12/15 13:53:24;;;;;;;;;;;;;;;5.81;56.35;100841.69;5023696;28;124520;-67
2022/12/15 13:55:57;;;;;;;;;;;;;;;5.84;56.27;100831.94;5036050;27;126138;-67
2022/12/15 13:58:27;;;;;;;;;;;;;;;5.87;56.05;100836.25;5033027;28;114587;-67
2022/12/15 14:00:55;;;;;;;;;;;;;;;5.89;56.23;100834.44;5032421;27;113355;-66
2022/12/15 14:03:23;;;;;;;;;;;;;;;5.91;55.95;100832.63;5033722;27;123765;-68
2022/12/15 14:05:54;;;;;;;;;;;;;;;5.91;56.13;100837.91;5033186;28;123974;-67
2022/12/15 14:08:22;;;;;;;;;;;;;;;5.89;55.86;100829.19;5031326;28;115491;-67
2022/12/15 14:10:56;;;;;;;;;;;;;;;5.88;55.96;100827.47;5033048;27;114744;-67
2022/12/15 14:13:26;;;;;;;;;;;;;;;5.88;56.11;100822.22;5031964;28;124806;-67
2022/12/15 14:15:55;;;;;;;;;;;;;;;5.88;55.70;100832.75;5029486;27;124783;-67
2022/12/15 14:18:25;;;;;;;;;;;;;;;5.87;55.92;100819.63;5031423;28;114539;-67
2022/12/15 14:20:52;;;;;;;;;;;;;;;5.84;55.58;100820.59;5034709;28;113667;-67
2022/12/15 14:23:26;;;;;;;;;;;;;;;5.79;55.68;100811.94;5032897;27;124417;-67
2022/12/15 14:25:53;;;;;;;;;;;;;;;5.77;55.60;100819.00;5031505;27;125176;-67
2022/12/15 14:28:29;;;;;;;;;;;;;;;5.75;55.90;100820.81;5030950;28;114101;-67
2022/12/15 14:30:57;;;;;;;;;;;;;;;5.74;55.64;100808.56;5030377;28;113751;-66
2022/12/15 14:33:25;;;;;;;;;;;;;;;5.72;55.98;100815.63;5033049;27;123047;-66
2022/12/15 14:35:56;;;;;;;;;;;;;;;5.70;55.50;100812.19;5036304;28;124331;-67
2022/12/15 14:38:24;;;;;;;;;;;;;;;5.64;55.47;100803.53;5032249;28;115144;-67
2022/12/15 14:40:53;;;;;;;;;;;;;;;5.59;55.33;100800.16;5019791;27;114232;-66
2022/12/15 14:43:22;;;;;;;;;;;;;;;5.51;55.25;100786.38;5031126;28;124451;-66
2022/12/15 14:45:51;;;;;;;;;;;;;;;5.44;55.63;100790.94;5032364;27;122792;-67
2022/12/15 14:48:25;;;;;;;;;;;;;;;5.39;55.33;100791.94;5034012;28;114492;-67
2022/12/15 14:51:10;;;;;;;;;;;;;;;5.32;55.60;100790.34;5023162;28;114448;-67
2022/12/15 14:53:38;;;;;;;;;;;;;;;5.25;55.78;100790.50;5031654;28;124324;-66
2022/12/15 14:56:12;;;;;;;;;;;;;;;5.21;55.38;100799.34;5032728;28;124167;-67
2022/12/15 14:58:40;;;;;;;;;;;;;;;5.18;55.55;100796.81;5033990;28;115884;-67
2022/12/15 15:01:45;;;;;;;;;;;;;;;5.12;55.50;100783.78;5035345;28;114540;-67
2022/12/15 15:04:27;;;;;;;;;;;;;;;5.03;55.48;100786.66;4982158;28;124836;-68
2022/12/15 15:06:55;;;;;;;;;;;;;;;4.93;55.58;100793.00;4986095;28;125203;-68
2022/12/15 15:09:27;;;;;;;;;;;;;;;4.83;55.24;100785.34;5011979;27;114771;-67
2022/12/15 15:12:05;;;;;;;;;;;;;;;4.76;55.62;100786.34;5024679;28;113770;-67